Time;durP1;ratioP1;P1;durP2;ratioP2;P2;SDS_P1;SDS_P2;PMS_P1;PMS_P2;Temp;Humidity;BMP_temperature;BMP_pressure;BME280_temperature;BME280_humidity;BME280_pressure;Samples;Min_cycle;Max_cycle;Signal;HPM_P1;HPM_P2
2023/12/02 00:02:06;;;;;;;21.12;11.30;;;5.30;69.70;;;;;;2287979;55;21838;-67
2023/12/02 00:04:33;;;;;;;22.10;11.75;;;5.30;69.60;;;;;;2288115;55;21826;-68
2023/12/02 00:06:59;;;;;;;21.20;11.07;;;5.30;69.60;;;;;;2522326;54;21546;-69
2023/12/02 00:09:26;;;;;;;24.12;12.73;;;5.30;69.50;;;;;;2519150;54;21062;-67
2023/12/02 00:11:52;;;;;;;20.77;11.65;;;5.20;69.50;;;;;;2286221;55;21845;-68
2023/12/02 00:14:18;;;;;;;19.37;10.52;;;5.20;69.60;;;;;;2287571;54;21020;-67
2023/12/02 00:16:45;;;;;;;18.65;10.57;;;5.20;69.60;;;;;;2522217;54;21814;-68
2023/12/02 00:19:11;;;;;;;20.95;10.10;;;5.10;69.50;;;;;;2521514;54;21070;-69
2023/12/02 00:21:37;;;;;;;22.65;10.63;;;5.10;69.50;;;;;;2286131;55;20942;-68
2023/12/02 00:24:04;;;;;;;19.65;10.25;;;5.10;69.60;;;;;;2286885;54;21019;-69
2023/12/02 00:26:30;;;;;;;18.52;9.93;;;5.10;69.70;;;;;;2522654;54;21020;-69
2023/12/02 00:28:57;;;;;;;19.02;9.95;;;5.10;69.80;;;;;;2287767;55;21815;-67
2023/12/02 00:31:24;;;;;;;19.83;11.00;;;5.00;69.70;;;;;;2286705;55;21257;-67
2023/12/02 00:33:51;;;;;;;20.08;9.82;;;4.90;69.60;;;;;;2288255;55;21039;-69
2023/12/02 00:36:17;;;;;;;18.77;10.18;;;5.00;69.70;;;;;;2287604;55;20987;-68
2023/12/02 00:38:44;;;;;;;18.48;9.73;;;5.00;69.60;;;;;;2289773;55;21035;-67
2023/12/02 00:41:10;;;;;;;17.20;9.32;;;5.00;69.70;;;;;;2522243;54;20955;-69
2023/12/02 00:43:37;;;;;;;18.87;10.02;;;5.00;69.60;;;;;;2287701;55;21035;-67
2023/12/02 00:46:04;;;;;;;18.30;9.68;;;5.00;69.60;;;;;;2288158;55;21267;-68
2023/12/02 00:48:30;;;;;;;18.00;9.27;;;4.90;69.50;;;;;;2288643;55;20999;-68
2023/12/02 00:50:57;;;;;;;17.05;9.45;;;4.90;69.60;;;;;;2522359;54;21484;-67
2023/12/02 00:53:26;;;;;;;16.55;9.45;;;4.90;69.60;;;;;;2289788;55;21067;-69
2023/12/02 00:55:52;;;;;;;17.98;9.60;;;4.90;69.60;;;;;;2518070;54;21015;-68
2023/12/02 00:58:19;;;;;;;17.30;9.38;;;4.90;69.60;;;;;;2521757;54;21504;-67
2023/12/02 01:00:47;;;;;;;18.20;10.13;;;4.80;69.60;;;;;;2522414;54;21337;-68
2023/12/02 01:03:15;;;;;;;21.02;10.55;;;4.80;69.60;;;;;;2521969;54;20947;-68
2023/12/02 01:05:45;;;;;;;17.40;9.82;;;4.80;69.50;;;;;;2522703;54;21023;-67
2023/12/02 01:08:11;;;;;;;17.58;9.80;;;4.80;69.50;;;;;;2522437;54;21000;-69
2023/12/02 01:10:38;;;;;;;16.45;8.98;;;4.80;69.50;;;;;;2522361;54;21070;-69
2023/12/02 01:13:04;;;;;;;19.52;10.23;;;4.70;69.50;;;;;;2287233;55;21034;-67
2023/12/02 01:15:30;;;;;;;18.87;9.65;;;4.70;69.60;;;;;;2522415;54;21846;-67
2023/12/02 01:17:57;;;;;;;17.62;9.52;;;4.70;69.60;;;;;;2523130;54;20967;-68
2023/12/02 01:20:25;;;;;;;19.05;9.55;;;4.70;69.70;;;;;;2287905;55;21050;-68
2023/12/02 01:22:51;;;;;;;18.27;9.25;;;4.70;69.70;;;;;;2288008;55;20985;-67
2023/12/02 01:25:17;;;;;;;17.33;9.25;;;4.70;69.70;;;;;;2287185;55;20967;-67
2023/12/02 01:27:44;;;;;;;18.65;9.98;;;4.70;69.80;;;;;;2518689;54;21005;-67
2023/12/02 01:30:12;;;;;;;18.40;9.43;;;4.60;69.70;;;;;;2286818;55;20971;-68
2023/12/02 01:32:38;;;;;;;16.92;9.35;;;4.60;69.70;;;;;;2288353;55;21011;-67
2023/12/02 01:35:05;;;;;;;17.62;9.95;;;4.60;69.60;;;;;;2522101;54;21031;-69
2023/12/02 01:37:31;;;;;;;17.30;9.52;;;4.60;69.70;;;;;;2522272;54;20968;-69
2023/12/02 01:39:59;;;;;;;17.25;9.13;;;4.60;69.70;;;;;;2522856;54;20972;-68
2023/12/02 01:42:28;;;;;;;23.12;10.15;;;4.70;69.80;;;;;;2287748;55;20982;-69
2023/12/02 01:44:54;;;;;;;16.08;8.85;;;4.60;69.60;;;;;;2285693;55;20991;-68
2023/12/02 01:47:21;;;;;;;18.40;9.48;;;4.50;69.50;;;;;;2286004;55;21003;-67
2023/12/02 01:49:47;;;;;;;17.20;9.25;;;4.50;69.50;;;;;;2522236;54;21406;-68
2023/12/02 01:52:13;;;;;;;19.25;9.60;;;4.50;69.50;;;;;;2288457;55;21796;-68
2023/12/02 01:54:40;;;;;;;17.40;8.93;;;4.50;69.50;;;;;;2517784;54;21016;-67
2023/12/02 01:57:08;;;;;;;19.20;9.25;;;4.50;69.60;;;;;;2287387;55;21038;-69
2023/12/02 01:59:39;;;;;;;19.10;9.90;;;4.40;69.50;;;;;;2287777;55;20947;-68
2023/12/02 02:02:06;;;;;;;16.17;8.98;;;4.40;69.50;;;;;;2522069;54;21828;-69
2023/12/02 02:04:32;;;;;;;17.37;9.68;;;4.40;69.50;;;;;;2521203;54;20964;-67
2023/12/02 02:06:58;;;;;;;18.27;9.38;;;4.40;69.50;;;;;;2288346;55;21059;-67
2023/12/02 02:09:25;;;;;;;18.35;10.32;;;4.40;69.50;;;;;;2288718;55;21002;-68
2023/12/02 02:11:51;;;;;;;18.60;9.98;;;4.40;69.50;;;;;;2519054;54;21211;-68
2023/12/02 02:14:21;;;;;;;16.98;9.60;;;4.30;69.40;;;;;;2287717;55;20947;-67
2023/12/02 02:16:47;;;;;;;17.52;9.70;;;4.30;69.40;;;;;;2287826;55;21456;-67
2023/12/02 02:19:14;;;;;;;18.87;10.52;;;4.30;69.40;;;;;;2522301;54;20964;-68
2023/12/02 02:21:40;;;;;;;19.90;10.93;;;4.30;69.40;;;;;;2522041;54;21022;-66
2023/12/02 02:24:06;;;;;;;19.52;10.48;;;4.30;69.40;;;;;;2517461;54;21372;-67
2023/12/02 02:26:33;;;;;;;18.37;9.77;;;4.30;69.50;;;;;;2286764;55;20992;-67
2023/12/02 02:28:59;;;;;;;19.83;10.70;;;4.20;69.40;;;;;;2286635;54;21407;-68
2023/12/02 02:31:25;;;;;;;23.00;11.68;;;4.20;69.50;;;;;;2286924;55;20955;-68
2023/12/02 02:33:52;;;;;;;18.90;10.18;;;4.20;69.50;;;;;;2287860;55;20931;-69
2023/12/02 02:36:19;;;;;;;21.73;11.15;;;4.20;69.50;;;;;;2288036;55;21014;-68
2023/12/02 02:38:45;;;;;;;20.37;10.38;;;4.10;69.50;;;;;;2286036;54;21026;-67
2023/12/02 02:41:11;;;;;;;18.50;9.90;;;4.10;69.50;;;;;;2288125;55;21004;-67
2023/12/02 02:43:38;;;;;;;18.37;9.52;;;4.10;69.60;;;;;;2522258;54;20939;-67
2023/12/02 02:46:05;;;;;;;18.55;10.10;;;4.10;69.60;;;;;;2522824;54;21012;-68
2023/12/02 02:48:31;;;;;;;16.98;9.45;;;4.10;69.70;;;;;;2287438;55;20956;-68
2023/12/02 02:50:58;;;;;;;17.37;9.40;;;4.10;69.70;;;;;;2287847;55;20974;-68
2023/12/02 02:53:24;;;;;;;17.90;9.80;;;4.10;69.70;;;;;;2287552;55;21189;-69
2023/12/02 02:55:50;;;;;;;17.80;9.63;;;4.10;69.70;;;;;;2288014;54;22028;-67
2023/12/02 02:58:16;;;;;;;19.10;9.55;;;4.10;69.70;;;;;;2522525;54;21575;-68
2023/12/02 03:00:43;;;;;;;18.60;9.57;;;4.10;69.70;;;;;;2522683;54;21028;-68
2023/12/02 03:03:10;;;;;;;19.30;9.98;;;4.10;69.70;;;;;;2287543;55;20959;-67
2023/12/02 03:05:36;;;;;;;19.65;10.18;;;4.00;69.60;;;;;;2287734;55;21020;-67
2023/12/02 03:08:02;;;;;;;19.50;10.65;;;4.00;69.60;;;;;;2289767;55;20962;-68
2023/12/02 03:10:29;;;;;;;19.48;10.60;;;4.00;69.60;;;;;;2284002;55;21087;-67
2023/12/02 03:12:55;;;;;;;20.70;9.85;;;4.00;69.60;;;;;;2522419;54;20971;-67
2023/12/02 03:15:21;;;;;;;19.35;10.80;;;4.00;69.60;;;;;;2522052;54;22000;-67
2023/12/02 03:17:48;;;;;;;19.87;10.18;;;4.00;69.60;;;;;;2288581;55;21011;-66
2023/12/02 03:20:17;;;;;;;19.73;10.68;;;4.00;69.60;;;;;;2522278;54;21777;-67
2023/12/02 03:22:43;;;;;;;19.10;10.77;;;4.00;69.60;;;;;;2522308;54;21533;-67
2023/12/02 03:25:11;;;;;;;19.85;9.75;;;4.00;69.60;;;;;;2287927;55;21054;-66
2023/12/02 03:27:37;;;;;;;20.75;10.18;;;3.90;69.50;;;;;;2520709;54;21038;-67
2023/12/02 03:30:04;;;;;;;17.20;9.27;;;3.90;69.50;;;;;;2285499;55;20959;-68
2023/12/02 03:32:31;;;;;;;17.58;9.65;;;3.90;69.50;;;;;;2287621;55;21023;-68
2023/12/02 03:35:00;;;;;;;21.10;10.40;;;3.90;69.50;;;;;;2522554;54;21006;-67
2023/12/02 03:37:27;;;;;;;18.90;9.60;;;3.90;69.50;;;;;;2289968;55;20977;-67
2023/12/02 03:39:53;;;;;;;18.50;9.18;;;3.90;69.50;;;;;;2284950;54;20975;-67
2023/12/02 03:42:19;;;;;;;17.75;9.63;;;3.90;69.60;;;;;;2287722;55;21472;-67
2023/12/02 03:44:45;;;;;;;15.75;8.38;;;3.80;69.50;;;;;;2522333;54;20947;-69
2023/12/02 03:47:12;;;;;;;16.55;9.27;;;3.90;69.60;;;;;;2287083;55;21070;-67
2023/12/02 03:49:38;;;;;;;16.98;9.05;;;3.80;69.50;;;;;;2287684;55;21546;-67
2023/12/02 03:52:05;;;;;;;15.32;8.10;;;3.80;69.50;;;;;;2286469;55;21903;-66
2023/12/02 03:54:32;;;;;;;16.48;9.00;;;3.80;69.60;;;;;;2521172;54;21034;-67
2023/12/02 03:56:58;;;;;;;16.62;8.85;;;3.80;69.60;;;;;;2288138;55;21043;-68
2023/12/02 03:59:25;;;;;;;16.67;8.90;;;3.80;69.50;;;;;;2521830;54;20939;-67
2023/12/02 04:01:51;;;;;;;17.98;9.27;;;3.80;69.50;;;;;;2288330;55;21440;-67
2023/12/02 04:04:21;;;;;;;19.25;8.48;;;3.80;69.50;;;;;;2290856;55;20988;-68
2023/12/02 04:06:47;;;;;;;17.00;8.60;;;3.80;69.50;;;;;;2520376;54;21017;-66
2023/12/02 04:09:16;;;;;;;18.12;10.27;;;3.80;69.50;;;;;;2519683;54;21871;-67
2023/12/02 04:11:48;;;;;;;17.75;9.77;;;3.70;69.40;;;;;;2289155;55;21019;-66
2023/12/02 04:14:14;;;;;;;16.50;8.30;;;3.70;69.30;;;;;;2288643;55;21457;-66
2023/12/02 04:16:44;;;;;;;15.50;8.70;;;3.70;69.20;;;;;;2288570;55;20979;-67
2023/12/02 04:19:10;;;;;;;16.95;8.40;;;3.70;69.30;;;;;;2522091;54;21035;-66
2023/12/02 04:21:40;;;;;;;16.17;8.07;;;3.70;69.30;;;;;;2522288;54;21465;-66
2023/12/02 04:24:08;;;;;;;15.90;8.48;;;3.70;69.40;;;;;;2522231;54;21023;-67
2023/12/02 04:26:34;;;;;;;15.85;8.38;;;3.70;69.50;;;;;;2287900;55;20974;-67
2023/12/02 04:29:01;;;;;;;16.02;8.50;;;3.60;69.30;;;;;;2288233;55;21384;-67
2023/12/02 04:31:27;;;;;;;17.42;8.50;;;3.70;69.40;;;;;;2287731;55;20959;-68
2023/12/02 04:33:53;;;;;;;15.02;8.10;;;3.60;69.20;;;;;;2288524;55;20947;-66
2023/12/02 04:36:20;;;;;;;14.65;7.70;;;3.60;69.30;;;;;;2522840;54;21007;-67
2023/12/02 04:38:47;;;;;;;13.38;7.50;;;3.60;69.40;;;;;;2521181;54;21019;-67
2023/12/02 04:41:13;;;;;;;15.77;8.35;;;3.60;69.50;;;;;;2522207;54;21028;-68
2023/12/02 04:43:40;;;;;;;16.25;8.20;;;3.60;69.50;;;;;;2521968;54;21839;-68
2023/12/02 04:46:07;;;;;;;14.75;8.20;;;3.60;69.50;;;;;;2287207;55;20987;-67
2023/12/02 04:48:33;;;;;;;23.15;9.18;;;3.60;69.80;;;;;;2522654;54;21452;-66
2023/12/02 04:51:00;;;;;;;17.90;9.15;;;3.60;69.50;;;;;;2522596;54;21019;-66
2023/12/02 04:53:26;;;;;;;17.70;9.13;;;3.60;69.40;;;;;;2522087;54;20972;-67
2023/12/02 04:55:54;;;;;;;17.48;9.55;;;3.50;69.30;;;;;;2288651;55;20971;-66
2023/12/02 04:58:20;;;;;;;16.30;8.80;;;3.50;69.30;;;;;;2517472;54;20941;-66
2023/12/02 05:00:47;;;;;;;18.80;9.23;;;3.50;69.20;;;;;;2287164;55;21026;-67
2023/12/02 05:03:17;;;;;;;15.82;8.48;;;3.50;69.20;;;;;;2521949;54;21035;-67
2023/12/02 05:05:44;;;;;;;16.73;8.35;;;3.50;69.20;;;;;;2287256;55;20993;-67
2023/12/02 05:08:11;;;;;;;18.50;9.38;;;3.50;69.20;;;;;;2521697;54;21058;-68
2023/12/02 05:10:37;;;;;;;15.20;8.40;;;3.50;69.10;;;;;;2522275;54;21308;-67
2023/12/02 05:13:03;;;;;;;16.95;8.65;;;3.40;69.00;;;;;;2522355;54;21031;-66
2023/12/02 05:15:31;;;;;;;17.90;9.02;;;3.40;69.10;;;;;;2287765;56;21019;-66
2023/12/02 05:17:58;;;;;;;17.60;9.25;;;3.40;69.20;;;;;;2288477;55;21030;-67
2023/12/02 05:20:24;;;;;;;17.05;8.63;;;3.40;69.10;;;;;;2521793;54;20980;-66
2023/12/02 05:22:51;;;;;;;16.85;9.02;;;3.40;69.10;;;;;;2521486;54;21066;-67
2023/12/02 05:25:17;;;;;;;17.30;9.23;;;3.40;69.10;;;;;;2522156;54;21909;-67
2023/12/02 05:27:43;;;;;;;18.08;8.45;;;3.30;68.90;;;;;;2288100;55;20951;-67
2023/12/02 05:30:12;;;;;;;16.50;8.75;;;3.30;69.00;;;;;;2288480;55;21007;-67
2023/12/02 05:32:39;;;;;;;15.55;8.80;;;3.30;69.00;;;;;;2522697;54;20971;-66
2023/12/02 05:35:07;;;;;;;15.60;9.00;;;3.20;69.00;;;;;;2288377;55;21544;-66
2023/12/02 05:37:33;;;;;;;16.40;9.02;;;3.30;69.10;;;;;;2521645;54;20964;-67
2023/12/02 05:40:00;;;;;;;18.67;8.85;;;3.20;69.00;;;;;;2288149;55;21430;-67
2023/12/02 05:42:26;;;;;;;15.07;8.73;;;3.20;69.00;;;;;;2288011;55;21294;-67
2023/12/02 05:44:53;;;;;;;15.48;8.13;;;3.20;69.10;;;;;;2287971;55;21018;-67
2023/12/02 05:50:47;;;;;;;17.48;9.20;;;3.20;69.10;;;;;;2275573;54;21345;-66
2023/12/02 05:56:42;;;;;;;15.18;7.93;;;3.10;69.10;;;;;;2511427;54;21416;-67
2023/12/02 05:59:09;;;;;;;16.40;8.60;;;3.10;69.20;;;;;;2287578;55;21531;-66
2023/12/02 06:01:36;;;;;;;18.05;8.70;;;3.10;69.10;;;;;;2521925;54;21010;-66
2023/12/02 06:04:02;;;;;;;17.20;8.38;;;3.10;69.20;;;;;;2522514;54;21188;-65
2023/12/02 06:06:29;;;;;;;15.88;8.73;;;3.10;69.30;;;;;;2288010;55;22020;-67
2023/12/02 06:08:55;;;;;;;15.52;8.38;;;3.10;69.30;;;;;;2288070;55;21054;-67
2023/12/02 06:11:21;;;;;;;16.00;8.55;;;3.10;69.30;;;;;;2521250;54;21023;-66
2023/12/02 06:13:48;;;;;;;18.10;8.73;;;3.10;69.30;;;;;;2521891;54;20951;-66
2023/12/02 06:16:14;;;;;;;14.77;8.10;;;3.10;69.30;;;;;;2287751;55;20987;-68
2023/12/02 06:18:40;;;;;;;15.68;8.10;;;3.10;69.30;;;;;;2287768;55;20971;-67
2023/12/02 06:21:18;;;;;;;17.48;8.77;;;3.10;69.40;;;;;;2522483;54;20975;-66
2023/12/02 06:23:44;;;;;;;15.80;8.32;;;3.10;70.10;;;;;;2521963;54;21782;-65
2023/12/02 06:26:11;;;;;;;17.25;9.68;;;3.10;69.30;;;;;;2287986;55;20988;-65
2023/12/02 06:28:37;;;;;;;14.73;8.30;;;3.00;69.20;;;;;;2288011;55;20998;-67
2023/12/02 06:31:03;;;;;;;16.77;8.13;;;3.10;69.30;;;;;;2288306;55;21523;-67
2023/12/02 06:33:30;;;;;;;16.12;8.80;;;3.10;69.30;;;;;;2522765;54;21606;-66
2023/12/02 06:35:56;;;;;;;16.02;8.27;;;3.00;69.20;;;;;;2287341;55;21430;-66
2023/12/02 06:41:51;;;;;;;16.12;8.52;;;3.00;68.90;;;;;;2515342;54;21509;-66
2023/12/02 06:44:19;;;;;;;13.25;7.53;;;3.00;68.90;;;;;;2286897;55;20955;-66
2023/12/02 06:46:45;;;;;;;15.60;7.62;;;3.00;68.90;;;;;;2516839;54;21002;-66
2023/12/02 06:49:11;;;;;;;15.07;8.30;;;2.90;68.70;;;;;;2287557;55;21347;-66
2023/12/02 06:51:38;;;;;;;13.98;7.35;;;2.90;68.80;;;;;;2288272;55;20987;-66
2023/12/02 06:54:04;;;;;;;15.05;7.25;;;2.90;68.80;;;;;;2522218;54;21031;-66
2023/12/02 06:56:31;;;;;;;13.35;7.22;;;3.00;68.90;;;;;;2517314;54;20927;-67
2023/12/02 06:58:58;;;;;;;13.50;7.60;;;2.90;68.90;;;;;;2287036;54;21648;-65
2023/12/02 07:01:31;;;;;;;13.30;7.15;;;2.90;68.90;;;;;;2287751;55;21075;-66
2023/12/02 07:03:58;;;;;;;16.30;8.23;;;2.90;68.90;;;;;;2287453;56;20959;-66
2023/12/02 07:06:25;;;;;;;16.75;7.90;;;2.90;68.90;;;;;;2522379;54;20987;-67
2023/12/02 07:08:54;;;;;;;14.93;8.10;;;2.80;68.90;;;;;;2288728;55;21022;-66
2023/12/02 07:11:21;;;;;;;16.15;8.00;;;2.90;68.90;;;;;;2520248;54;21472;-67
2023/12/02 07:13:48;;;;;;;14.18;7.75;;;2.80;68.80;;;;;;2522015;54;21671;-66
2023/12/02 07:16:15;;;;;;;16.15;7.25;;;2.80;68.90;;;;;;2287965;55;21047;-66
2023/12/02 07:18:41;;;;;;;12.18;7.03;;;2.80;68.90;;;;;;2517471;54;21069;-67
2023/12/02 07:21:12;;;;;;;13.43;7.00;;;2.80;69.00;;;;;;2287431;55;21027;-65
2023/12/02 07:23:38;;;;;;;15.32;7.72;;;2.80;69.00;;;;;;2287804;55;20976;-67
2023/12/02 07:26:05;;;;;;;12.85;7.20;;;2.80;68.90;;;;;;2287036;55;20964;-65
2023/12/02 07:28:31;;;;;;;14.07;7.57;;;2.80;69.00;;;;;;2522408;54;21850;-66
2023/12/02 07:30:59;;;;;;;13.00;7.20;;;2.80;69.00;;;;;;2517609;54;21464;-67
2023/12/02 07:33:26;;;;;;;13.90;7.50;;;2.80;68.90;;;;;;2521416;54;21471;-65
2023/12/02 07:35:53;;;;;;;15.45;8.98;;;2.80;68.90;;;;;;2287373;55;21714;-66
2023/12/02 07:38:22;;;;;;;15.23;8.55;;;2.80;68.80;;;;;;2264956;56;21461;-67
2023/12/02 07:40:48;;;;;;;15.93;7.68;;;2.80;68.80;;;;;;2287109;55;21020;-66
2023/12/02 07:43:15;;;;;;;12.48;6.68;;;2.70;68.70;;;;;;2522276;54;20979;-67
2023/12/02 07:45:42;;;;;;;14.18;7.72;;;2.80;68.80;;;;;;2522515;54;21019;-66
2023/12/02 07:48:10;;;;;;;14.77;7.07;;;2.80;68.80;;;;;;2522062;54;21015;-66
2023/12/02 07:50:37;;;;;;;17.12;8.27;;;2.80;68.80;;;;;;2287959;55;21434;-67
2023/12/02 07:53:04;;;;;;;14.05;7.78;;;2.70;68.80;;;;;;2287080;55;20955;-65
2023/12/02 07:55:31;;;;;;;14.55;7.75;;;2.70;68.70;;;;;;2522479;54;20967;-66
2023/12/02 07:57:57;;;;;;;16.08;8.77;;;2.70;68.70;;;;;;2287692;55;20963;-65
2023/12/02 08:00:24;;;;;;;15.38;7.93;;;2.70;68.70;;;;;;2287887;55;20971;-66
2023/12/02 08:02:51;;;;;;;16.00;8.40;;;2.70;68.70;;;;;;2522322;54;20978;-66
2023/12/02 08:05:17;;;;;;;15.18;8.02;;;2.70;68.70;;;;;;2287493;55;21090;-66
2023/12/02 08:07:51;;;;;;;11.12;5.78;;;2.70;68.70;;;;;;2522325;54;21849;-66
2023/12/02 08:10:17;;;;;;;17.02;8.25;;;2.70;68.70;;;;;;2286976;55;21023;-66
2023/12/02 08:12:46;;;;;;;17.08;8.60;;;2.60;68.60;;;;;;2288711;55;20949;-67
2023/12/02 08:15:12;;;;;;;16.92;7.97;;;2.60;68.50;;;;;;2519957;54;21469;-66
2023/12/02 08:17:39;;;;;;;15.07;7.87;;;2.60;68.60;;;;;;2522851;54;21872;-65
2023/12/02 08:20:08;;;;;;;15.38;7.70;;;2.60;68.60;;;;;;2521624;54;21619;-65
2023/12/02 08:22:35;;;;;;;15.80;8.30;;;2.60;68.70;;;;;;2518997;54;20986;-65
2023/12/02 08:25:01;;;;;;;15.95;7.80;;;2.60;68.70;;;;;;2518719;54;20951;-66
2023/12/02 08:27:30;;;;;;;18.83;8.32;;;2.50;68.60;;;;;;2287240;55;20976;-67
2023/12/02 08:29:56;;;;;;;16.17;8.13;;;2.60;68.80;;;;;;2522015;54;20947;-66
2023/12/02 08:32:23;;;;;;;14.93;8.13;;;2.60;68.80;;;;;;2516836;54;20964;-66
2023/12/02 08:34:51;;;;;;;16.45;8.18;;;2.50;68.70;;;;;;2521804;54;20947;-65
2023/12/02 08:37:18;;;;;;;16.67;8.05;;;2.50;69.40;;;;;;2287518;55;20927;-67
2023/12/02 08:39:44;;;;;;;15.35;8.60;;;2.50;68.80;;;;;;2522019;54;21023;-67
2023/12/02 08:42:11;;;;;;;15.32;8.40;;;2.50;68.80;;;;;;2521170;54;21722;-66
2023/12/02 08:44:38;;;;;;;12.95;7.47;;;2.60;68.90;;;;;;2287250;55;21419;-65
2023/12/02 08:47:06;;;;;;;16.20;8.25;;;2.50;68.80;;;;;;2520647;54;20967;-66
2023/12/02 08:49:32;;;;;;;13.27;7.70;;;2.50;68.90;;;;;;2516643;54;20993;-67
2023/12/02 08:52:00;;;;;;;14.23;7.97;;;2.50;68.80;;;;;;2287424;55;21433;-65
2023/12/02 08:54:27;;;;;;;15.95;7.80;;;2.50;68.80;;;;;;2521130;54;21094;-66
2023/12/02 08:56:53;;;;;;;14.57;7.65;;;2.50;68.80;;;;;;2521961;54;21019;-65
2023/12/02 08:59:19;;;;;;;13.48;7.35;;;2.50;68.80;;;;;;2287816;55;21008;-66
2023/12/02 09:01:47;;;;;;;13.73;7.30;;;2.50;68.80;;;;;;2522046;54;20981;-66
2023/12/02 09:04:13;;;;;;;14.05;7.85;;;2.50;68.90;;;;;;2521504;54;21818;-67
2023/12/02 09:06:40;;;;;;;13.80;7.37;;;2.50;68.90;;;;;;2289114;55;21060;-67
2023/12/02 09:09:07;;;;;;;14.95;7.68;;;2.50;68.80;;;;;;2287522;55;21276;-66
2023/12/02 09:11:34;;;;;;;13.80;7.03;;;2.50;68.80;;;;;;2521656;54;20964;-66
2023/12/02 09:14:00;;;;;;;14.65;7.60;;;2.50;68.80;;;;;;2521948;54;20961;-66
2023/12/02 09:16:28;;;;;;;14.45;7.25;;;2.50;68.80;;;;;;2287916;55;20963;-65
2023/12/02 09:18:54;;;;;;;13.90;7.32;;;2.50;68.90;;;;;;2522882;54;21044;-66
2023/12/02 09:21:44;;;;;;;15.02;7.80;;;2.60;69.00;;;;;;2287870;55;21024;-67
2023/12/02 09:24:35;;;;;;;14.57;7.72;;;2.50;68.80;;;;;;2522105;54;21400;-66
2023/12/02 09:27:05;;;;;;;15.15;7.30;;;2.60;68.90;;;;;;2522584;54;21030;-65
2023/12/02 09:29:40;;;;;;;14.87;7.65;;;2.60;69.00;;;;;;2288707;55;21035;-66
2023/12/02 09:34:45;;;;;;;13.82;7.43;;;2.60;69.00;;;;;;2288064;55;21106;-66
2023/12/02 09:44:18;;;;;;;11.20;6.25;;;2.60;69.00;;;;;;2287843;55;21023;-66
2023/12/02 09:47:56;;;;;;;11.15;5.50;;;2.60;68.80;;;;;;2288010;55;20976;-65
2023/12/02 09:50:24;;;;;;;10.77;5.37;;;2.60;68.90;;;;;;2522094;54;21485;-66
2023/12/02 09:55:53;;;;;;;13.68;6.70;;;2.60;69.00;;;;;;2522691;54;20979;-66
2023/12/02 09:58:26;;;;;;;11.48;5.53;;;2.70;68.70;;;;;;2287995;55;21046;-67
2023/12/02 10:01:13;;;;;;;12.77;5.70;;;2.60;69.00;;;;;;2285685;55;21663;-65
2023/12/02 10:05:13;;;;;;;10.05;5.62;;;2.70;69.20;;;;;;2522624;54;20980;-66
2023/12/02 10:08:00;;;;;;;11.15;5.62;;;2.70;68.70;;;;;;2517982;54;21010;-65
2023/12/02 10:10:31;;;;;;;11.55;6.82;;;2.70;69.00;;;;;;2267932;55;20964;-66
2023/12/02 10:13:11;;;;;;;11.75;6.47;;;2.70;69.10;;;;;;2491655;54;20956;-66
2023/12/02 10:15:39;;;;;;;10.35;6.10;;;2.70;69.00;;;;;;2522752;54;20968;-65
2023/12/02 10:18:12;;;;;;;10.65;6.22;;;2.80;69.10;;;;;;2287577;55;20971;-65
2023/12/02 10:20:40;;;;;;;9.88;5.80;;;2.70;68.80;;;;;;2288057;55;21047;-65
2023/12/02 10:23:17;;;;;;;11.05;6.10;;;2.70;69.50;;;;;;2287380;55;21003;-66
2023/12/02 10:27:15;;;;;;;11.38;5.82;;;2.80;68.80;;;;;;2522602;54;21043;-65
2023/12/02 10:31:33;;;;;;;11.70;6.05;;;2.80;68.40;;;;;;2522395;54;20975;-66
2023/12/02 10:34:17;;;;;;;9.20;5.22;;;2.80;68.40;;;;;;2288052;55;20983;-66
2023/12/02 10:36:44;;;;;;;11.88;5.50;;;2.80;68.70;;;;;;2286944;54;21239;-66
2023/12/02 10:39:11;;;;;;;10.35;5.80;;;2.80;68.90;;;;;;2521370;54;20948;-66
2023/12/02 10:43:34;;;;;;;12.70;5.87;;;2.80;68.90;;;;;;2521885;54;21026;-66
2023/12/02 10:46:00;;;;;;;10.60;5.15;;;2.80;68.40;;;;;;2287981;55;21531;-65
2023/12/02 10:48:27;;;;;;;10.20;5.55;;;2.80;68.90;;;;;;2522030;54;20967;-66
2023/12/02 10:50:53;;;;;;;10.02;5.70;;;2.80;68.80;;;;;;2522823;54;21424;-67
2023/12/02 10:53:20;;;;;;;10.50;5.45;;;2.80;68.70;;;;;;2287435;55;21039;-65
2023/12/02 10:55:47;;;;;;;9.15;5.18;;;2.80;68.70;;;;;;2287829;55;21070;-66
2023/12/02 10:58:14;;;;;;;11.15;5.90;;;2.90;68.70;;;;;;2521649;54;21777;-66
2023/12/02 11:00:40;;;;;;;10.60;5.78;;;2.90;68.70;;;;;;2522413;54;20955;-66
2023/12/02 11:03:34;;;;;;;7.97;4.78;;;2.90;68.60;;;;;;2289130;55;20958;-66
2023/12/02 11:06:07;;;;;;;8.23;5.10;;;2.90;68.50;;;;;;2286394;55;20970;-66
2023/12/02 11:08:42;;;;;;;;;;;2.90;68.40;;;;;;2525024;54;21051;-66
2023/12/02 11:11:11;;;;;;;8.73;4.22;;;2.90;68.00;;;;;;2521605;54;20073;-66
2023/12/02 11:13:37;;;;;;;8.60;4.62;;;2.90;68.50;;;;;;2292640;55;21022;-67
2023/12/02 11:16:32;;;;;;;9.30;4.90;;;2.90;68.50;;;;;;2516541;54;21268;-65
2023/12/02 11:20:51;;;;;;;8.90;4.53;;;2.90;68.30;;;;;;2520708;54;20951;-66
2023/12/02 11:24:04;;;;;;;9.13;4.85;;;2.90;68.30;;;;;;2287644;55;21023;-66
2023/12/02 11:26:43;;;;;;;8.77;4.72;;;2.90;68.20;;;;;;2258729;55;20969;-66
2023/12/02 11:30:05;;;;;;;8.07;4.57;;;2.90;68.40;;;;;;2257521;56;21351;-67
2023/12/02 11:36:01;;;;;;;8.98;4.47;;;2.90;68.20;;;;;;2485587;54;21036;-67
2023/12/02 11:38:30;;;;;;;;;;;2.90;68.10;;;;;;2488506;55;20971;-66
2023/12/02 11:47:26;;;;;;;6.85;3.65;;;2.90;68.20;;;;;;2484933;55;20065;-65
2023/12/02 11:50:48;;;;;;;9.45;3.92;;;3.00;68.20;;;;;;2485006;55;20982;-66
2023/12/02 11:55:16;;;;;;;8.20;4.07;;;3.00;68.70;;;;;;2254982;56;21087;-65
2023/12/02 11:58:12;;;;;;;7.93;4.10;;;3.00;68.30;;;;;;2485374;55;21078;-66
2023/12/02 12:01:25;;;;;;;7.85;4.25;;;3.00;68.90;;;;;;2485331;54;20953;-66
2023/12/02 12:05:00;;;;;;;8.40;4.40;;;3.10;68.80;;;;;;2498433;54;21870;-66
2023/12/02 12:08:31;;;;;;;9.85;5.12;;;3.10;68.90;;;;;;2285034;55;20984;-65
2023/12/02 12:10:57;;;;;;;10.77;4.45;;;3.10;68.60;;;;;;2489199;54;20966;-66
2023/12/02 12:13:25;;;;;;;10.35;4.97;;;3.20;69.20;;;;;;2286359;55;21306;-66
2023/12/02 12:15:51;;;;;;;10.80;5.35;;;3.20;69.10;;;;;;2485531;55;20965;-66
2023/12/02 12:18:18;;;;;;;8.07;4.60;;;3.20;69.10;;;;;;2256496;55;20975;-65
2023/12/02 12:20:44;;;;;;;7.85;4.47;;;3.20;69.10;;;;;;2257413;54;21276;-66
2023/12/02 12:23:11;;;;;;;7.32;4.28;;;3.30;69.00;;;;;;2256021;55;21488;-66
2023/12/02 12:25:38;;;;;;;7.68;4.20;;;3.30;69.00;;;;;;2274959;55;20963;-65
2023/12/02 12:28:05;;;;;;;7.65;4.50;;;3.30;68.90;;;;;;2504394;54;21036;-66
2023/12/02 12:30:47;;;;;;;7.93;4.37;;;3.30;68.80;;;;;;2256886;55;21025;-66
2023/12/02 12:33:17;;;;;;;7.85;4.68;;;3.40;68.60;;;;;;2258259;54;21056;-67
2023/12/02 12:35:44;;;;;;;11.43;5.95;;;3.40;68.80;;;;;;2496732;54;20984;-67
2023/12/02 12:38:10;;;;;;;9.98;5.97;;;3.40;68.70;;;;;;2286791;55;20982;-66
2023/12/02 12:40:37;;;;;;;9.52;5.55;;;3.40;68.50;;;;;;2497568;54;21397;-66
2023/12/02 12:43:03;;;;;;;10.48;6.15;;;3.40;68.50;;;;;;2280992;55;21025;-66
2023/12/02 12:45:33;;;;;;;10.68;5.80;;;3.40;68.50;;;;;;2485808;54;20956;-66
2023/12/02 12:48:00;;;;;;;9.07;5.20;;;3.40;68.50;;;;;;2485778;54;20984;-65
2023/12/02 12:50:32;;;;;;;8.82;5.35;;;3.40;68.40;;;;;;2257317;55;20965;-66
2023/12/02 12:53:08;;;;;;;9.02;5.00;;;3.40;68.40;;;;;;2485577;54;20965;-66
2023/12/02 12:55:38;;;;;;;9.70;4.82;;;3.40;68.40;;;;;;2492070;54;21071;-65
2023/12/02 12:58:07;;;;;;;7.90;4.82;;;3.50;68.60;;;;;;2291123;55;21043;-66
2023/12/02 13:00:35;;;;;;;7.43;4.20;;;3.50;68.70;;;;;;2491081;54;20952;-66
2023/12/02 13:04:35;;;;;;;8.48;4.80;;;3.50;68.70;;;;;;2485199;54;20989;-66
2023/12/02 13:07:03;;;;;;;7.65;4.20;;;3.50;67.90;;;;;;2485394;54;20905;-66
2023/12/02 13:09:31;;;;;;;9.60;4.70;;;3.50;68.60;;;;;;2256878;55;21497;-66
2023/12/02 13:12:35;;;;;;;8.27;4.45;;;3.60;68.80;;;;;;2509434;54;21019;-66
2023/12/02 13:15:06;;;;;;;8.90;4.93;;;3.60;68.70;;;;;;2258697;55;20996;-66
2023/12/02 13:17:34;;;;;;;10.05;5.60;;;3.60;68.80;;;;;;2292226;55;21213;-66
2023/12/02 13:20:02;;;;;;;10.00;5.32;;;3.60;68.90;;;;;;2517127;54;21502;-65
2023/12/02 13:22:31;;;;;;;9.05;5.12;;;3.70;69.00;;;;;;2237252;55;1805530;-67
2023/12/02 13:25:13;;;;;;;9.82;5.72;;;3.70;69.10;;;;;;2279134;55;21523;-67
2023/12/02 13:28:00;;;;;;;10.00;5.18;;;3.70;69.00;;;;;;2494714;54;20961;-65
2023/12/02 13:30:29;;;;;;;8.60;4.85;;;3.70;68.90;;;;;;2485518;54;20969;-66
2023/12/02 13:33:00;;;;;;;7.97;4.78;;;3.70;68.90;;;;;;2282204;55;21232;-66
2023/12/02 13:35:32;;;;;;;7.28;3.92;;;3.70;68.80;;;;;;2270719;55;20984;-66
2023/12/02 13:38:26;;;;;;;7.72;4.72;;;3.80;68.70;;;;;;2486330;54;20964;-66
2023/12/02 13:41:11;;;;;;;7.62;4.55;;;3.70;68.40;;;;;;2524447;54;20948;-66
2023/12/02 13:43:53;;;;;;;8.00;4.85;;;3.80;68.70;;;;;;2291400;55;20986;-65
2023/12/02 13:47:15;;;;;;;8.13;4.40;;;3.80;68.60;;;;;;2485706;54;21040;-65